CET,Max TemperatureF,Mean TemperatureF,Min TemperatureF,Max Dew PointF,MeanDew PointF,Min DewpointF,Max Humidity, Mean Humidity, Min Humidity, Max Sea Level PressureIn, Mean Sea Level PressureIn, Min Sea Level PressureIn, Max VisibilityMiles, Mean VisibilityMiles, Min VisibilityMiles, Max Wind SpeedMPH, Mean Wind SpeedMPH, Max Gust SpeedMPH,PrecipitationIn, CloudCover, Events, WindDirDegrees
2012-11-1,67,64,60,61,57,52,88,77,61,29.68,29.50,29.30,12,7,6,26,16,,0.02,3,Rain,233
2012-11-2,67,61,55,59,55,52,88,78,62,29.99,29.84,29.70,16,7,6,12,5,,0.00,2,,228
2012-11-3,67,62,56,59,56,52,88,79,65,30.06,30.02,29.98,12,7,6,13,8,,0.04,4,,119
2012-11-4,68,64,60,64,61,53,94,86,70,30.01,29.88,29.77,6,5,4,18,14,,0.03,5,Rain,131
2012-11-5,71,66,62,65,60,54,88,79,65,29.89,29.76,29.68,12,6,4,21,14,34,0.00,3,Rain,222
2012-11-6,66,60,55,56,54,52,88,79,62,30.05,29.97,29.89,12,7,6,12,7,,0.00,2,,50
2012-11-7,64,58,51,54,48,43,88,69,42,30.30,30.15,30.04,16,8,6,15,9,22,0.04,2,Rain-Thunderstorm,1
2012-11-8,65,56,46,54,48,41,94,75,53,30.30,30.25,30.18,16,8,6,13,9,,0.00,1,,67
2012-11-9,64,56,48,54,49,43,93,78,52,30.19,30.12,30.06,12,9,6,8,4,,0.00,,,23
2012-11-10,66,58,51,59,53,43,88,73,57,30.09,30.01,29.95,16,8,6,20,11,,0.00,5,,116
2012-11-11,69,66,63,63,59,52,88,78,53,29.98,29.91,29.86,9,6,4,24,19,34,0.20,5,Rain-Thunderstorm,130
2012-11-12,73,68,62,64,62,59,94,80,68,30.15,30.06,29.98,16,8,5,23,17,,0.00,2,Rain,128
2012-11-13,70,64,58,63,58,55,94,82,64,30.21,30.16,30.12,11,8,6,9,6,,0.00,2,,10
2012-11-14,69,62,56,59,55,51,88,76,58,30.18,30.12,30.09,16,8,6,13,8,,0.00,4,,5
2012-11-15,64,60,55,57,53,48,88,79,68,30.10,30.04,30.01,9,6,6,8,6,,0.00,4,,20
2012-11-16,65,57,49,54,46,-22,88,73,4,30.05,30.01,29.98,16,7,6,14,8,,0.00,2,,19
2012-11-17,65,57,49,55,50,46,94,78,53,30.02,29.97,29.92,16,6,2,12,8,,0.24,3,Rain,17
2012-11-18,65,60,56,59,56,52,88,84,73,29.92,29.87,29.83,7,6,3,13,7,,0.12,4,Rain-Thunderstorm,75
2012-11-19,65,60,55,68,55,50,94,80,53,30.09,29.83,29.80,12,6,5,89,10,,0.20,4,Rain,50
2012-11-20,62,58,55,56,52,48,88,79,68,29.94,29.87,29.83,9,7,6,13,10,,0.00,6,Rain,23
2012-11-21,65,58,50,54,49,44,94,77,53,30.08,30.00,29.92,12,8,5,13,8,,0.00,3,,8
2012-11-22,66,58,49,57,52,48,94,84,58,30.18,30.14,30.09,7,6,4,9,5,,0.00,2,,87
2012-11-23,67,60,52,55,53,50,94,80,54,30.23,30.17,30.12,9,5,3,9,5,,0.00,2,,52
2012-11-24,65,57,49,53,50,46,100,83,55,30.25,30.22,30.21,9,5,4,12,6,,0.00,1,,18
2012-11-25,64,55,46,52,48,44,100,80,48,30.24,30.20,30.18,16,9,5,10,6,,0.00,1,,16
2012-11-26,65,56,48,54,49,45,87,75,52,30.19,30.10,30.01,16,7,6,13,5,,0.00,2,,108
2012-11-27,64,60,56,63,55,45,100,78,58,30.02,29.82,29.65,7,6,4,23,15,33,0.00,5,Rain,118
2012-11-28,66,60,55,62,54,45,94,79,58,29.66,29.39,29.30,9,6,4,34,22,48,0.12,5,Rain-Thunderstorm,165
2012-11-29,58,54,51,52,48,43,88,75,57,29.36,29.29,29.24,7,5,2,30,22,45,0.39,5,Rain-Hail-Thunderstorm,214
2012-11-30,59,54,48,49,41,34,82,61,34,29.68,29.53,29.36,12,6,5,23,14,28,0.02,5,Rain-Thunderstorm,209